地図

経路データ

SID SEASON NUMBER BASIN SUBBASIN NAME ISO_TIME NATURE LAT LON WMO_WIND WMO_PRES WMO_AGENCY TRACK_TYPE DIST2LAND LANDFALL IFLAG USA_AGENCY USA_ATCF_ID USA_LAT USA_LON USA_RECORD USA_STATUS USA_WIND USA_PRES USA_SSHS USA_R34_NE USA_R34_SE USA_R34_SW USA_R34_NW USA_R50_NE USA_R50_SE USA_R50_SW USA_R50_NW USA_R64_NE USA_R64_SE USA_R64_SW USA_R64_NW USA_POCI USA_ROCI USA_RMW USA_EYE TOKYO_LAT TOKYO_LON TOKYO_GRADE TOKYO_WIND TOKYO_PRES TOKYO_R50_DIR TOKYO_R50_LONG TOKYO_R50_SHORT TOKYO_R30_DIR TOKYO_R30_LONG TOKYO_R30_SHORT TOKYO_LAND CMA_LAT CMA_LON CMA_CAT CMA_WIND CMA_PRES HKO_LAT HKO_LON HKO_CAT HKO_WIND HKO_PRES NEWDELHI_LAT NEWDELHI_LON NEWDELHI_GRADE NEWDELHI_WIND NEWDELHI_PRES NEWDELHI_CI NEWDELHI_DP NEWDELHI_POCI REUNION_LAT REUNION_LON REUNION_TYPE REUNION_WIND REUNION_PRES REUNION_TNUM REUNION_CI REUNION_RMW REUNION_R34_NE REUNION_R34_SE REUNION_R34_SW REUNION_R34_NW REUNION_R50_NE REUNION_R50_SE REUNION_R50_SW REUNION_R50_NW REUNION_R64_NE REUNION_R64_SE REUNION_R64_SW REUNION_R64_NW BOM_LAT BOM_LON BOM_TYPE BOM_WIND BOM_PRES BOM_TNUM BOM_CI BOM_RMW BOM_R34_NE BOM_R34_SE BOM_R34_SW BOM_R34_NW BOM_R50_NE BOM_R50_SE BOM_R50_SW BOM_R50_NW BOM_R64_NE BOM_R64_SE BOM_R64_SW BOM_R64_NW BOM_ROCI BOM_POCI BOM_EYE BOM_POS_METHOD BOM_PRES_METHOD NADI_LAT NADI_LON NADI_CAT NADI_WIND NADI_PRES WELLINGTON_LAT WELLINGTON_LON WELLINGTON_WIND WELLINGTON_PRES DS824_LAT DS824_LON DS824_STAGE DS824_WIND DS824_PRES TD9636_LAT TD9636_LON TD9636_STAGE TD9636_WIND TD9636_PRES TD9635_LAT TD9635_LON TD9635_WIND TD9635_PRES TD9635_ROCI NEUMANN_LAT NEUMANN_LON NEUMANN_CLASS NEUMANN_WIND NEUMANN_PRES MLC_LAT MLC_LON MLC_CLASS MLC_WIND MLC_PRES USA_GUST BOM_GUST BOM_GUST_PER REUNION_GUST REUNION_GUST_PER USA_SEAHGT USA_SEARAD_NE USA_SEARAD_SE USA_SEARAD_SW USA_SEARAD_NW STORM_SPEED STORM_DIR
1951202N12104 1951 40 WP MM NOT_NAMED 1951-07-21 00:00:00 NR 12.0000 103.800 main 0 0 __________O___ -1 12.0000 103.800 1 14 323
1951202N12104 1951 40 WP MM NOT_NAMED 1951-07-21 03:00:00 NR 12.5599 103.364 main 0 0 __________P___ -1 12.5599 103.364 1 14 322
1951202N12104 1951 40 WP MM NOT_NAMED 1951-07-21 06:00:00 NR 13.1057 102.922 main 0 0 __________P___ -1 13.1057 102.922 1 14 321
1951202N12104 1951 40 WP MM NOT_NAMED 1951-07-21 09:00:00 NR 13.6236 102.469 main 0 0 __________P___ -1 13.6236 102.469 1 13 318
1951202N12104 1951 40 WP MM NOT_NAMED 1951-07-21 12:00:00 NR 14.1000 102.000 main 0 0 __________O___ -1 14.1000 102.000 1 13 314
1951202N12104 1951 40 WP MM NOT_NAMED 1951-07-21 15:00:00 NR 14.5258 101.512 main 0 0 __________P___ -1 14.5258 101.512 1 13 310
1951202N12104 1951 40 WP MM NOT_NAMED 1951-07-21 18:00:00 NR 14.9093 101.001 main 0 0 __________P___ -1 14.9093 101.001 1 13 306
1951202N12104 1951 40 WP MM NOT_NAMED 1951-07-21 21:00:00 NR 15.2632 100.465 main 0 0 __________P___ -1 15.2632 100.465 1 13 303
1951202N12104 1951 40 NI BB NOT_NAMED 1951-07-22 00:00:00 NR 15.6000 99.9000 main 0 0 __________O___ -1 15.6000 99.9000 1 13 302
1951202N12104 1951 40 NI BB NOT_NAMED 1951-07-22 03:00:00 NR 15.9471 99.3154 main 0 0 __________P___ -1 15.9471 99.3154 1 13 301
1951202N12104 1951 40 NI BB NOT_NAMED 1951-07-22 06:00:00 NR 16.2793 98.7017 main 0 0 __________P___ -1 16.2793 98.7017 1 14 298
1951202N12104 1951 40 NI BB NOT_NAMED 1951-07-22 09:00:00 NR 16.5969 98.0622 main 0 0 __________P___ -1 16.5969 98.0622 1 14 296
1951202N12104 1951 40 NI BB NOT_NAMED 1951-07-22 12:00:00 NR 16.9000 97.4000 main 0 0 __________O___ -1 16.9000 97.4000 1 14 295
1951202N12104 1951 40 NI BB NOT_NAMED 1951-07-22 15:00:00 NR 17.1933 96.7090 main 0 0 __________P___ -1 17.1933 96.7090 1 15 293
1951202N12104 1951 40 NI BB NOT_NAMED 1951-07-22 18:00:00 NR 17.4724 95.9995 main 0 0 __________P___ -1 17.4724 95.9995 1 15 292
1951202N12104 1951 40 NI BB NOT_NAMED 1951-07-22 21:00:00 NR 17.7402 95.2902 main 0 0 __________P___ -1 17.7402 95.2902 1 14 292
1951202N12104 1951 40 NI BB NOT_NAMED 1951-07-23 00:00:00 NR 18.0000 94.6000 main 0 0 __________O___ -1 18.0000 94.6000 1 13 292
1951202N12104 1951 40 NI BB NOT_NAMED 1951-07-23 03:00:00 NR 18.2473 93.9845 main 31 31 __________P___ -1 18.2473 93.9845 1 13 293
1951202N12104 1951 40 NI BB NOT_NAMED 1951-07-23 06:00:00 NR 18.4899 93.3853 main 61 61 __________P___ -1 18.4899 93.3853 1 13 293
1951202N12104 1951 40 NI BB NOT_NAMED 1951-07-23 09:00:00 NR 18.7377 92.7687 main 100 100 __________P___ -1 18.7377 92.7687 1 13 293
1951202N12104 1951 40 NI BB NOT_NAMED 1951-07-23 12:00:00 NR 19.0000 92.1000 main 148 146 __________O___ -1 19.0000 92.1000 1 15 293
1951202N12104 1951 40 NI BB NOT_NAMED 1951-07-23 15:00:00 NR 19.3359 91.2818 main 184 184 __________P___ -1 19.3359 91.2818 1 17 293
1951202N12104 1951 40 NI BB NOT_NAMED 1951-07-23 18:00:00 NR 19.6773 90.4156 main 235 186 __________P___ -1 19.6773 90.4156 1 17 292
1951202N12104 1951 40 NI BB NOT_NAMED 1951-07-23 21:00:00 NR 19.9798 89.5662 main 186 156 __________P___ -1 19.9798 89.5662 1 16 289
1951202N12104 1951 40 NI BB NOT_NAMED 1951-07-24 00:00:00 NR 20.2000 88.8000 main 156 132 __________O___ -1 20.2000 88.8000 1 13 284
1951202N12104 1951 40 NI BB NOT_NAMED 1951-07-24 03:00:00 NR 20.3045 88.2010 main 132 85 __________P___ -1 20.3045 88.2010 1 10 277
1951202N12104 1951 40 NI BB NOT_NAMED 1951-07-24 06:00:00 NR 20.3250 87.6934 main 85 53 __________P___ -1 20.3250 87.6934 1 9 269
1951202N12104 1951 40 NI BB NOT_NAMED 1951-07-24 09:00:00 NR 20.2831 87.2392 main 45 15 __________P___ -1 20.2831 87.2392 1 8 262
1951202N12104 1951 40 NI BB NOT_NAMED 1951-07-24 12:00:00 NR 20.2000 86.8000 main 15 0 __________O___ -1 20.2000 86.8000 1 9 257
1951202N12104 1951 40 NI BB NOT_NAMED 1951-07-24 15:00:00 NR 20.0938 86.3448 main 0 0 __________P___ -1 20.0938 86.3448 1 9 255
1951202N12104 1951 40 NI BB NOT_NAMED 1951-07-24 18:00:00 NR 19.9719 85.8723 main 0 0 __________P___ -1 19.9719 85.8723 1 9 254
1951202N12104 1951 40 NI BB NOT_NAMED 1951-07-24 21:00:00 NR 19.8391 85.3887 main 0 0 __________P___ -1 19.8391 85.3887 1 10 253
1951202N12104 1951 40 NI BB NOT_NAMED 1951-07-25 00:00:00 NR 19.7000 84.9000 main 0 __________O___ -1 19.7000 84.9000 1 10 253

デジタル台風データ・検索

IBTrACS Databaseについて

本データベースは、米国NOAAが公開する1842年以降の世界の熱帯低気圧のベストトラックデータアーカイブInternational Best Track Archive for Climate Stewardship (IBTrACS)を、ウェブで閲覧しやすい形式に変換したものです。

最終更新日:2021-10-21